地図

経路データ

SID SEASON NUMBER BASIN SUBBASIN NAME ISO_TIME NATURE LAT LON WMO_WIND WMO_PRES WMO_AGENCY TRACK_TYPE DIST2LAND LANDFALL IFLAG USA_AGENCY USA_ATCF_ID USA_LAT USA_LON USA_RECORD USA_STATUS USA_WIND USA_PRES USA_SSHS USA_R34_NE USA_R34_SE USA_R34_SW USA_R34_NW USA_R50_NE USA_R50_SE USA_R50_SW USA_R50_NW USA_R64_NE USA_R64_SE USA_R64_SW USA_R64_NW USA_POCI USA_ROCI USA_RMW USA_EYE TOKYO_LAT TOKYO_LON TOKYO_GRADE TOKYO_WIND TOKYO_PRES TOKYO_R50_DIR TOKYO_R50_LONG TOKYO_R50_SHORT TOKYO_R30_DIR TOKYO_R30_LONG TOKYO_R30_SHORT TOKYO_LAND CMA_LAT CMA_LON CMA_CAT CMA_WIND CMA_PRES HKO_LAT HKO_LON HKO_CAT HKO_WIND HKO_PRES NEWDELHI_LAT NEWDELHI_LON NEWDELHI_GRADE NEWDELHI_WIND NEWDELHI_PRES NEWDELHI_CI NEWDELHI_DP NEWDELHI_POCI REUNION_LAT REUNION_LON REUNION_TYPE REUNION_WIND REUNION_PRES REUNION_TNUM REUNION_CI REUNION_RMW REUNION_R34_NE REUNION_R34_SE REUNION_R34_SW REUNION_R34_NW REUNION_R50_NE REUNION_R50_SE REUNION_R50_SW REUNION_R50_NW REUNION_R64_NE REUNION_R64_SE REUNION_R64_SW REUNION_R64_NW BOM_LAT BOM_LON BOM_TYPE BOM_WIND BOM_PRES BOM_TNUM BOM_CI BOM_RMW BOM_R34_NE BOM_R34_SE BOM_R34_SW BOM_R34_NW BOM_R50_NE BOM_R50_SE BOM_R50_SW BOM_R50_NW BOM_R64_NE BOM_R64_SE BOM_R64_SW BOM_R64_NW BOM_ROCI BOM_POCI BOM_EYE BOM_POS_METHOD BOM_PRES_METHOD NADI_LAT NADI_LON NADI_CAT NADI_WIND NADI_PRES WELLINGTON_LAT WELLINGTON_LON WELLINGTON_WIND WELLINGTON_PRES DS824_LAT DS824_LON DS824_STAGE DS824_WIND DS824_PRES TD9636_LAT TD9636_LON TD9636_STAGE TD9636_WIND TD9636_PRES TD9635_LAT TD9635_LON TD9635_WIND TD9635_PRES TD9635_ROCI NEUMANN_LAT NEUMANN_LON NEUMANN_CLASS NEUMANN_WIND NEUMANN_PRES MLC_LAT MLC_LON MLC_CLASS MLC_WIND MLC_PRES USA_GUST BOM_GUST BOM_GUST_PER REUNION_GUST REUNION_GUST_PER USA_SEAHGT USA_SEARAD_NE USA_SEARAD_SE USA_SEARAD_SW USA_SEARAD_NW STORM_SPEED STORM_DIR
1939208N22148 1939 40 WP MM NOT_NAMED 1939-07-27 10:00:00 NR 22.1000 147.600 main 1613 1589 __________O___ -1 22.1000 147.600 7 8 283
1939208N22148 1939 40 WP MM NOT_NAMED 1939-07-27 12:00:00 NR 22.1593 147.328 main 1589 1572 __________P___ -1 22.1593 147.328 7 8 283
1939208N22148 1939 40 WP MM NOT_NAMED 1939-07-27 15:00:00 NR 22.2443 146.922 main 1572 1545 __________P___ -1 22.2443 146.922 7 8 282
1939208N22148 1939 40 WP MM NOT_NAMED 1939-07-27 18:00:00 NR 22.3205 146.521 main 1545 1519 __________P___ -1 22.3205 146.521 7 7 281
1939208N22148 1939 40 WP MM NOT_NAMED 1939-07-27 21:00:00 NR 22.3830 146.129 main 1519 1515 __________P___ -1 22.3830 146.129 7 7 279
1939208N22148 1939 40 WP MM NOT_NAMED 1939-07-27 22:00:00 NR 22.4000 146.000 main 1515 1504 __________O___ -1 22.4000 146.000 7 7 277
1939208N22148 1939 40 WP MM NOT_NAMED 1939-07-28 00:00:00 NR 22.4278 145.747 main 1504 1483 __________P___ -1 22.4278 145.747 7 7 276
1939208N22148 1939 40 WP MM NOT_NAMED 1939-07-28 03:00:00 NR 22.4571 145.373 main 1483 1470 __________P___ -1 22.4571 145.373 7 7 274
1939208N22148 1939 40 WP MM NOT_NAMED 1939-07-28 06:00:00 NR 22.4770 145.002 main 1470 1457 __________P___ -1 22.4770 145.002 7 7 273
1939208N22148 1939 40 WP MM NOT_NAMED 1939-07-28 09:00:00 NR 22.4940 144.627 main 1457 1454 __________P___ -1 22.4940 144.627 7 7 273
1939208N22148 1939 40 WP MM NOT_NAMED 1939-07-28 10:00:00 NR 22.5000 144.500 main 1454 1448 __________O___ -1 22.5000 144.500 7 7 274
1939208N22148 1939 40 WP MM NOT_NAMED 1939-07-28 12:00:00 NR 22.5186 144.265 main 1448 1437 __________P___ -1 22.5186 144.265 7 7 275
1939208N22148 1939 40 WP MM NOT_NAMED 1939-07-28 15:00:00 NR 22.5468 143.907 main 1437 1415 __________P___ -1 22.5468 143.907 7 7 275
1939208N22148 1939 40 WP MM NOT_NAMED 1939-07-28 18:00:00 NR 22.5730 143.518 main 1415 1401 __________P___ -1 22.5730 143.518 7 8 274
1939208N22148 1939 40 WP MM NOT_NAMED 1939-07-28 21:00:00 NR 22.5945 143.068 main 1401 1391 __________P___ -1 22.5945 143.068 7 9 273
1939208N22148 1939 40 WP MM NOT_NAMED 1939-07-28 22:00:00 NR 22.6000 142.900 main 1391 1372 __________O___ -1 22.6000 142.900 7 10 271
1939208N22148 1939 40 WP MM NOT_NAMED 1939-07-29 00:00:00 NR 22.6062 142.518 main 1372 1345 __________P___ -1 22.6062 142.518 7 11 271
1939208N22148 1939 40 WP MM NOT_NAMED 1939-07-29 03:00:00 NR 22.6088 141.883 main 1345 1316 __________P___ -1 22.6088 141.883 7 12 270
1939208N22148 1939 40 WP MM NOT_NAMED 1939-07-29 06:00:00 NR 22.6061 141.205 main 1316 1290 __________P___ -1 22.6061 141.205 7 13 270
1939208N22148 1939 40 WP MM NOT_NAMED 1939-07-29 09:00:00 NR 22.6014 140.522 main 1290 1283 __________P___ -1 22.6014 140.522 7 13 270
1939208N22148 1939 40 WP MM NOT_NAMED 1939-07-29 10:00:00 NR 22.6000 140.300 main 1283 1270 __________O___ -1 22.6000 140.300 7 12 270
1939208N22148 1939 40 WP MM NOT_NAMED 1939-07-29 12:00:00 NR 22.5995 139.881 main 1270 1253 __________P___ -1 22.5995 139.881 7 11 270
1939208N22148 1939 40 WP MM NOT_NAMED 1939-07-29 15:00:00 NR 22.5992 139.264 main 1253 1218 __________P___ -1 22.5992 139.264 7 11 270
1939208N22148 1939 40 WP MM NOT_NAMED 1939-07-29 18:00:00 NR 22.5994 138.665 main 1218 1184 __________P___ -1 22.5994 138.665 7 11 270
1939208N22148 1939 40 WP MM NOT_NAMED 1939-07-29 21:00:00 NR 22.5998 138.087 main 1184 1173 __________P___ -1 22.5998 138.087 7 11 270
1939208N22148 1939 40 WP MM NOT_NAMED 1939-07-29 22:00:00 NR 22.6000 137.900 main 1173 1152 __________O___ -1 22.6000 137.900 7 10 269
1939208N22148 1939 40 WP MM NOT_NAMED 1939-07-30 00:00:00 NR 22.5890 137.525 main 1152 1126 __________P___ -1 22.5890 137.525 7 10 268
1939208N22148 1939 40 WP MM NOT_NAMED 1939-07-30 03:00:00 NR 22.5728 136.981 main 1126 1099 __________P___ -1 22.5728 136.981 7 10 269
1939208N22148 1939 40 WP MM NOT_NAMED 1939-07-30 06:00:00 NR 22.5678 136.459 main 1099 1074 __________P___ -1 22.5678 136.459 7 9 271
1939208N22148 1939 40 WP MM NOT_NAMED 1939-07-30 09:00:00 NR 22.5864 135.961 main 1074 1065 __________P___ -1 22.5864 135.961 7 9 273
1939208N22148 1939 40 WP MM NOT_NAMED 1939-07-30 10:00:00 NR 22.6000 135.800 main 1065 1051 __________O___ -1 22.6000 135.800 7 9 277
1939208N22148 1939 40 WP MM NOT_NAMED 1939-07-30 12:00:00 NR 22.6408 135.478 main 1051 1019 __________P___ -1 22.6408 135.478 7 9 280
1939208N22148 1939 40 WP MM NOT_NAMED 1939-07-30 15:00:00 NR 22.7275 135.013 main 1019 993 __________P___ -1 22.7275 135.013 7 9 283
1939208N22148 1939 40 WP MM NOT_NAMED 1939-07-30 18:00:00 NR 22.8365 134.568 main 993 954 __________P___ -1 22.8365 134.568 7 8 286
1939208N22148 1939 40 WP MM NOT_NAMED 1939-07-30 21:00:00 NR 22.9582 134.140 main 954 951 __________P___ -1 22.9582 134.140 7 8 287
1939208N22148 1939 40 WP MM NOT_NAMED 1939-07-30 22:00:00 NR 23.0000 134.000 main 951 930 __________O___ -1 23.0000 134.000 7 8 286
1939208N22148 1939 40 WP MM NOT_NAMED 1939-07-31 00:00:00 NR 23.0668 133.722 main 930 908 __________P___ -1 23.0668 133.722 7 8 285
1939208N22148 1939 40 WP MM NOT_NAMED 1939-07-31 03:00:00 NR 23.1733 133.317 main 908 886 __________P___ -1 23.1733 133.317 7 8 287
1939208N22148 1939 40 WP MM NOT_NAMED 1939-07-31 06:00:00 NR 23.2958 132.922 main 886 867 __________P___ -1 23.2958 132.922 7 8 291
1939208N22148 1939 40 WP MM NOT_NAMED 1939-07-31 09:00:00 NR 23.4435 132.531 main 867 854 __________P___ -1 23.4435 132.531 7 8 293
1939208N22148 1939 40 WP MM NOT_NAMED 1939-07-31 10:00:00 NR 23.5000 132.400 main 854 837 __________O___ -1 23.5000 132.400 7 8 297
1939208N22148 1939 40 WP MM NOT_NAMED 1939-07-31 12:00:00 NR 23.6249 132.137 main 837 810 __________P___ -1 23.6249 132.137 7 8 299
1939208N22148 1939 40 WP MM NOT_NAMED 1939-07-31 15:00:00 NR 23.8374 131.740 main 810 772 __________P___ -1 23.8374 131.740 7 9 301
1939208N22148 1939 40 WP MM NOT_NAMED 1939-07-31 18:00:00 NR 24.0714 131.339 main 772 748 __________P___ -1 24.0714 131.339 7 9 303
1939208N22148 1939 40 WP MM NOT_NAMED 1939-07-31 21:00:00 NR 24.3171 130.935 main 748 737 __________P___ -1 24.3171 130.935 7 9 304
1939208N22148 1939 40 WP MM NOT_NAMED 1939-07-31 22:00:00 NR 24.4000 130.800 main 737 __________O___ -1 24.4000 130.800 7 9 304

デジタル台風データ・検索

IBTrACS Databaseについて

本データベースは、米国NOAAが公開する1842年以降の世界の熱帯低気圧のベストトラックデータアーカイブInternational Best Track Archive for Climate Stewardship (IBTrACS)を、ウェブで閲覧しやすい形式に変換したものです。

最終更新日:2021-11-26